Time;durP1;ratioP1;P1;durP2;ratioP2;P2;SDS_P1;SDS_P2;PMS_P1;PMS_P2;Temp;Humidity;BMP_temperature;BMP_pressure;BME280_temperature;BME280_humidity;BME280_pressure;Samples;Min_cycle;Max_cycle;Signal;HPM_P1;HPM_P2
2022/01/11 00:00:37;;;;;;;21.27;7.63;;;;;;;-2.69;60.43;99596.44;5040688;28;20080;-74
2022/01/11 00:03:15;;;;;;;23.20;8.30;;;;;;;-2.62;60.06;99597.34;5044339;28;20457;-74
2022/01/11 00:08:17;;;;;;;23.40;8.00;;;;;;;-2.64;60.22;99602.88;5049314;28;20048;-75
2022/01/11 00:10:49;;;;;;;26.03;8.10;;;;;;;-2.59;60.30;99603.13;5038177;28;20417;-75
2022/01/11 00:13:18;;;;;;;25.00;8.53;;;;;;;-2.59;60.22;99607.66;5031071;28;20049;-75
2022/01/11 00:15:44;;;;;;;24.43;7.93;;;;;;;-2.69;60.67;99604.47;5058755;28;20041;-74
2022/01/11 00:18:11;;;;;;;29.08;8.30;;;;;;;-2.60;60.57;99611.38;5043917;28;20049;-74
2022/01/11 00:20:38;;;;;;;21.43;7.27;;;;;;;-2.67;60.56;99611.31;5044969;28;20046;-74
2022/01/11 00:25:36;;;;;;;22.27;8.17;;;;;;;-2.60;60.71;99614.06;5042529;28;20106;-74
2022/01/11 00:28:04;;;;;;;23.53;9.13;;;;;;;-2.54;60.69;99623.16;5044541;28;20049;-74
2022/01/11 00:30:37;;;;;;;25.40;8.63;;;;;;;-2.62;60.55;99616.09;5045708;28;20057;-75
2022/01/11 00:33:08;;;;;;;26.13;8.33;;;;;;;-2.58;60.61;99628.88;5045672;28;20056;-76
2022/01/11 00:35:49;;;;;;;21.03;7.83;;;;;;;-2.55;60.60;99634.91;5049100;28;20041;-75
2022/01/11 00:38:18;;;;;;;20.90;7.43;;;;;;;-2.58;60.43;99630.75;5034648;28;20455;-73
2022/01/11 00:40:46;;;;;;;22.55;7.00;;;;;;;-2.56;60.26;99631.38;5039040;28;20044;-75
2022/01/11 00:43:13;;;;;;;24.00;7.37;;;;;;;-2.62;60.25;99632.97;5045173;28;20132;-72
2022/01/11 00:45:39;;;;;;;21.37;7.50;;;;;;;-2.56;60.18;99639.41;5050392;28;20072;-72
2022/01/11 00:48:05;;;;;;;17.53;6.80;;;;;;;-2.75;60.13;99625.66;5049644;28;20536;-75
2022/01/11 00:50:33;;;;;;;20.07;6.57;;;;;;;-2.67;60.14;99638.09;5049237;28;20144;-75
2022/01/11 00:52:59;;;;;;;18.63;6.95;;;;;;;-2.76;60.69;99639.22;5050951;28;20045;-73
2022/01/11 00:55:26;;;;;;;22.43;6.73;;;;;;;-2.78;60.49;99654.66;5046030;28;20049;-75
2022/01/11 00:57:52;;;;;;;25.50;7.05;;;;;;;-2.81;60.31;99647.84;5039979;28;20091;-74
2022/01/11 01:00:18;;;;;;;20.77;6.37;;;;;;;-2.73;60.24;99661.09;5043328;28;20045;-75
2022/01/11 01:02:44;;;;;;;19.50;6.87;;;;;;;-2.74;60.10;99671.97;5039537;28;20041;-74
2022/01/11 01:05:12;;;;;;;20.60;7.85;;;;;;;-2.77;60.14;99672.34;5038742;28;20095;-74
2022/01/11 01:07:38;;;;;;;23.30;6.60;;;;;;;-2.75;60.21;99673.00;5051482;28;20048;-74
2022/01/11 01:10:19;;;;;;;19.20;6.33;;;;;;;-2.77;60.03;99680.38;5047779;28;20077;-74
2022/01/11 01:12:48;;;;;;;18.50;6.83;;;;;;;-2.85;60.19;99686.69;5036821;28;20052;-74
2022/01/11 01:15:14;;;;;;;18.53;6.83;;;;;;;-2.74;60.19;99688.03;5041514;28;20060;-73
2022/01/11 01:17:40;;;;;;;23.00;7.40;;;;;;;-2.79;60.06;99680.59;5034246;28;20056;-73
2022/01/11 01:20:09;;;;;;;22.52;7.50;;;;;;;-2.82;59.93;99680.16;5045085;28;20045;-73
2022/01/11 01:22:35;;;;;;;21.13;7.18;;;;;;;-2.85;60.08;99689.38;5043193;28;20534;-73
2022/01/11 01:25:01;;;;;;;21.83;8.00;;;;;;;-2.85;60.10;99694.72;5050898;28;20041;-75
2022/01/11 01:27:29;;;;;;;23.48;7.90;;;;;;;-2.90;60.17;99689.13;5047273;28;20110;-75
2022/01/11 01:29:56;;;;;;;19.80;7.33;;;;;;;-2.89;60.18;99683.59;5031301;28;20137;-75
2022/01/11 01:32:24;;;;;;;27.87;7.70;;;;;;;-2.90;60.32;99684.56;5052015;28;20044;-75
2022/01/11 01:34:50;;;;;;;26.77;7.63;;;;;;;-2.87;60.11;99694.94;5034694;28;20063;-76
2022/01/11 01:37:16;;;;;;;27.70;7.70;;;;;;;-2.82;59.71;99702.38;5032223;28;20125;-75
2022/01/11 01:39:43;;;;;;;24.10;7.67;;;;;;;-2.86;60.00;99715.31;5038184;28;20136;-76
2022/01/11 01:42:11;;;;;;;21.77;7.87;;;;;;;-2.83;59.71;99715.97;5046267;28;20044;-72
2022/01/11 01:44:41;;;;;;;20.90;7.47;;;;;;;-2.89;60.04;99705.00;5041092;28;20055;-73
2022/01/11 01:47:09;;;;;;;24.53;8.13;;;;;;;-2.91;59.93;99707.00;5046345;28;20049;-73
2022/01/11 01:49:39;;;;;;;;;;;;;;;-2.91;60.05;99711.53;5044241;28;20061;-74
2022/01/11 01:52:06;;;;;;;20.40;7.53;;;;;;;-2.89;59.94;99714.84;5033590;28;20294;-73
2022/01/11 01:54:32;;;;;;;20.00;6.95;;;;;;;-2.87;59.80;99715.50;5043313;28;20054;-73
2022/01/11 01:56:59;;;;;;;22.27;7.77;;;;;;;-2.89;59.69;99714.84;5055488;28;20045;-73
2022/01/11 01:59:29;;;;;;;20.20;7.37;;;;;;;-2.94;59.94;99719.97;5050470;28;20045;-74
2022/01/11 02:01:56;;;;;;;22.53;6.93;;;;;;;-2.92;59.77;99715.25;5036808;28;20041;-74
2022/01/11 02:04:23;;;;;;;24.27;7.78;;;;;;;-2.87;59.68;99716.34;5030769;28;20050;-73
2022/01/11 02:06:50;;;;;;;20.60;7.17;;;;;;;-2.91;59.43;99719.56;5034097;28;20049;-74
2022/01/11 02:09:17;;;;;;;22.43;7.73;;;;;;;-2.99;59.76;99726.69;5047721;28;20045;-73
2022/01/11 02:11:45;;;;;;;19.20;7.90;;;;;;;-3.02;60.22;99723.56;5011562;28;20103;-73
2022/01/11 02:14:12;;;;;;;16.50;6.87;;;;;;;-3.06;59.95;99706.22;5042899;28;20498;-73
2022/01/11 02:16:40;;;;;;;22.87;7.63;;;;;;;-3.05;60.08;99723.91;5035514;28;20088;-74
2022/01/11 02:19:06;;;;;;;20.90;7.25;;;;;;;-3.04;60.08;99721.06;5041014;28;20547;-72
2022/01/11 02:21:34;;;;;;;24.23;7.97;;;;;;;-3.02;59.87;99724.38;5029803;28;20412;-73
2022/01/11 02:24:00;;;;;;;21.55;7.95;;;;;;;-3.00;59.77;99727.69;5030421;28;20053;-73
2022/01/11 02:26:31;;;;;;;20.83;7.13;;;;;;;-2.99;59.60;99725.88;5023669;28;20114;-73
2022/01/11 02:29:00;;;;;;;25.80;7.83;;;;;;;-3.06;59.83;99723.09;5031586;28;20060;-74
2022/01/11 02:31:28;;;;;;;19.57;6.73;;;;;;;-3.05;59.76;99716.75;5034892;28;20042;-74
2022/01/11 02:33:58;;;;;;;22.33;8.27;;;;;;;-2.96;59.23;99730.84;5042122;28;20058;-74
2022/01/11 02:36:39;;;;;;;21.20;7.25;;;;;;;-3.08;59.38;99722.47;5014564;28;20143;-75
2022/01/11 02:39:15;;;;;;;18.53;6.47;;;;;;;-3.08;59.47;99727.81;5048325;28;20049;-74
2022/01/11 02:41:49;;;;;;;20.65;7.22;;;;;;;-3.06;59.53;99733.81;5050569;28;20048;-73
2022/01/11 02:44:20;;;;;;;;;;;;;;;-3.05;59.07;99739.97;5035380;28;20084;-75
2022/01/11 02:46:47;;;;;;;16.10;5.93;;;;;;;-3.06;58.95;99736.47;5039026;28;19971;-74
2022/01/11 02:49:13;;;;;;;14.57;6.20;;;;;;;-3.06;58.68;99732.97;5023663;28;20065;-73
2022/01/11 02:51:46;;;;;;;16.40;5.67;;;;;;;-3.10;58.83;99729.00;5030405;28;20057;-74
2022/01/11 02:54:15;;;;;;;15.97;5.93;;;;;;;-3.09;58.57;99749.41;5034796;28;20049;-75
2022/01/11 02:56:44;;;;;;;15.40;5.73;;;;;;;-3.12;58.67;99745.28;5030346;28;20145;-75
2022/01/11 02:59:11;;;;;;;16.77;6.40;;;;;;;-3.29;58.75;99752.66;5024334;28;20541;-74
2022/01/11 03:01:37;;;;;;;20.63;7.27;;;;;;;-3.22;58.52;99758.91;5036155;28;20041;-74
2022/01/11 03:04:04;;;;;;;16.40;6.33;;;;;;;-3.20;58.12;99748.88;5030175;28;20540;-75
2022/01/11 03:06:31;;;;;;;14.68;6.07;;;;;;;-3.30;58.37;99749.13;5036751;28;20052;-72
2022/01/11 03:08:58;;;;;;;16.60;5.73;;;;;;;-3.38;58.36;99743.88;5038420;28;20057;-73
2022/01/11 03:11:32;;;;;;;14.90;6.25;;;;;;;-3.22;58.28;99758.09;5028469;28;20490;-73
2022/01/11 03:14:00;;;;;;;16.03;6.40;;;;;;;-3.28;57.94;99765.00;5036084;28;20060;-74
2022/01/11 03:16:26;;;;;;;19.17;7.37;;;;;;;-3.21;57.84;99770.44;5035756;28;20041;-73
2022/01/11 03:18:52;;;;;;;17.40;6.23;;;;;;;-3.25;57.77;99767.31;5034418;28;20057;-72
2022/01/11 03:21:19;;;;;;;23.17;7.83;;;;;;;-3.19;57.49;99771.09;5044465;28;20041;-73
2022/01/11 03:23:46;;;;;;;18.17;6.40;;;;;;;-3.20;57.25;99767.59;5039319;28;20514;-73
2022/01/11 03:26:14;;;;;;;20.43;6.50;;;;;;;-3.21;57.41;99771.25;5039261;28;20116;-74
2022/01/11 03:28:41;;;;;;;14.77;5.23;;;;;;;-3.22;57.31;99768.78;5045040;28;20071;-73
2022/01/11 03:31:07;;;;;;;16.07;6.07;;;;;;;-3.26;57.55;99773.66;5054925;28;20041;-73
2022/01/11 03:33:43;;;;;;;13.43;5.33;;;;;;;-3.32;57.28;99775.22;5047340;28;20045;-73
2022/01/11 03:36:09;;;;;;;14.07;5.37;;;;;;;-3.22;57.22;99772.28;5034021;28;20049;-73
2022/01/11 03:38:36;;;;;;;13.80;5.43;;;;;;;-3.25;57.08;99788.69;5038977;28;20045;-72
2022/01/11 03:41:12;;;;;;;12.50;5.10;;;;;;;-3.26;56.60;99786.22;5048396;28;20524;-73
2022/01/11 03:43:44;;;;;;;18.60;5.83;;;;;;;-3.37;56.83;99788.34;5034479;28;20073;-73
2022/01/11 03:46:17;;;;;;;13.85;5.05;;;;;;;-3.50;56.87;99788.97;5033565;28;20165;-73
2022/01/11 03:48:43;;;;;;;12.85;4.97;;;;;;;-3.51;56.95;99790.00;5040702;28;20520;-74
2022/01/11 03:51:10;;;;;;;17.00;5.20;;;;;;;-3.56;56.64;99790.53;5047071;28;20414;-72
2022/01/11 03:54:07;;;;;;;13.03;5.00;;;;;;;-3.61;56.84;99784.06;5053099;28;20444;-73
2022/01/11 03:56:37;;;;;;;15.00;5.10;;;;;;;-3.50;56.53;99801.50;5032004;28;20049;-73
2022/01/11 03:59:12;;;;;;;12.17;4.70;;;;;;;-3.56;56.73;99797.72;5059344;28;20127;-74
2022/01/11 04:01:38;;;;;;;;;;;;;;;-3.61;56.64;99808.13;5047723;28;20087;-74
2022/01/11 04:04:05;;;;;;;13.13;4.53;;;;;;;-3.57;56.36;99801.41;5049566;28;19960;-74
2022/01/11 04:06:32;;;;;;;16.73;4.87;;;;;;;-3.60;56.45;99809.78;5047102;28;20497;-73
2022/01/11 04:08:59;;;;;;;12.18;4.45;;;;;;;-3.67;56.30;99815.03;5035645;28;20045;-74
2022/01/11 04:11:26;;;;;;;11.87;4.90;;;;;;;-3.71;56.29;99819.91;5035155;28;20049;-74
2022/01/11 04:13:54;;;;;;;10.63;4.50;;;;;;;-3.70;56.15;99818.06;5038631;28;20053;-74
2022/01/11 04:16:23;;;;;;;13.20;4.93;;;;;;;-3.68;56.28;99821.38;5046189;28;20049;-75
2022/01/11 04:18:50;;;;;;;14.73;4.73;;;;;;;-3.68;56.22;99837.41;5037570;28;20067;-73
2022/01/11 04:21:16;;;;;;;11.80;4.47;;;;;;;-3.78;55.88;99820.78;5054309;28;20057;-72
2022/01/11 04:23:46;;;;;;;12.47;4.30;;;;;;;-3.78;55.92;99837.69;5034955;28;20896;-72
2022/01/11 04:26:12;;;;;;;13.57;4.70;;;;;;;-3.73;55.83;99829.94;5022840;28;20111;-71
2022/01/11 04:28:39;;;;;;;15.53;4.90;;;;;;;-3.75;55.58;99833.78;5053534;28;20095;-74
2022/01/11 04:31:06;;;;;;;;;;;;;;;-3.75;55.80;99834.63;5051488;28;20079;-73
2022/01/11 04:33:42;;;;;;;12.17;4.60;;;;;;;-3.76;55.70;99842.81;5054748;28;19928;-73
2022/01/11 04:36:11;;;;;;;11.60;4.50;;;;;;;-3.92;55.91;99841.13;5031247;28;20071;-73
2022/01/11 04:38:38;;;;;;;12.93;4.50;;;;;;;-3.87;55.88;99855.63;5043094;28;20053;-72
2022/01/11 04:41:05;;;;;;;14.38;4.30;;;;;;;-3.82;55.94;99848.91;5051280;28;20494;-72
2022/01/11 04:43:36;;;;;;;15.43;5.10;;;;;;;-3.82;55.76;99854.25;5040766;28;20047;-73
2022/01/11 04:46:03;;;;;;;12.63;5.03;;;;;;;-3.93;56.13;99856.31;5037366;28;20049;-72
2022/01/11 04:48:32;;;;;;;13.95;4.80;;;;;;;-3.93;55.99;99855.50;5035893;28;20049;-73
2022/01/11 04:51:04;;;;;;;11.60;4.33;;;;;;;-3.95;55.94;99871.69;5037084;28;20041;-74
2022/01/11 04:53:31;;;;;;;13.83;5.57;;;;;;;-3.96;56.17;99863.88;5033644;28;20053;-73
2022/01/11 04:55:58;;;;;;;13.10;4.40;;;;;;;-3.92;55.88;99859.84;5045264;28;20140;-73
2022/01/11 04:58:25;;;;;;;13.30;4.53;;;;;;;-3.97;56.05;99868.38;5034438;28;20085;-72
2022/01/11 05:00:51;;;;;;;12.32;4.80;;;;;;;-3.92;55.66;99866.00;5034662;28;20045;-72
2022/01/11 05:03:21;;;;;;;12.93;4.73;;;;;;;-3.97;55.94;99867.56;5040525;28;20037;-74
2022/01/11 05:05:52;;;;;;;11.23;4.37;;;;;;;-4.01;55.39;99869.75;5033981;28;20055;-73
2022/01/11 05:08:20;;;;;;;12.10;4.23;;;;;;;-3.93;55.36;99877.69;5048631;28;20041;-73
2022/01/11 05:10:47;;;;;;;13.00;4.60;;;;;;;-4.00;55.41;99877.56;5047552;28;20127;-73
2022/01/11 05:13:17;;;;;;;13.32;4.80;;;;;;;-4.07;55.39;99883.78;5030486;28;20052;-72
2022/01/11 05:15:43;;;;;;;14.03;4.73;;;;;;;-4.03;55.13;99891.28;5050979;28;20069;-73
2022/01/11 05:18:10;;;;;;;11.53;4.60;;;;;;;-4.06;55.52;99888.13;5038801;28;20559;-72
2022/01/11 05:20:38;;;;;;;12.63;4.55;;;;;;;-4.11;55.44;99880.66;5045952;28;20063;-72
2022/01/11 05:23:05;;;;;;;13.55;4.50;;;;;;;-4.11;55.28;99882.50;5047599;28;20053;-72
2022/01/11 05:25:33;;;;;;;12.27;4.43;;;;;;;-4.16;55.30;99891.03;5038412;28;20091;-72
2022/01/11 05:28:00;;;;;;;12.77;4.60;;;;;;;-4.09;54.89;99899.16;5036047;28;20060;-73
2022/01/11 05:30:26;;;;;;;12.70;4.77;;;;;;;-4.02;54.86;99890.28;5016541;28;20073;-73
2022/01/11 05:32:53;;;;;;;13.37;4.87;;;;;;;-4.02;54.43;99900.16;5037278;28;20136;-75
2022/01/11 05:35:20;;;;;;;15.87;4.73;;;;;;;-4.05;54.45;99908.50;5042130;28;20045;-76
2022/01/11 05:37:47;;;;;;;13.05;4.60;;;;;;;-4.07;54.49;99910.50;5043852;28;20045;-75
2022/01/11 05:40:15;;;;;;;10.57;4.20;;;;;;;-4.07;54.21;99908.69;5036493;28;20088;-76
2022/01/11 05:42:44;;;;;;;14.83;4.80;;;;;;;-4.20;54.22;99903.91;5043152;28;20046;-76
2022/01/11 05:45:13;;;;;;;11.20;4.27;;;;;;;-4.17;54.04;99910.72;5046958;28;20045;-76
2022/01/11 05:47:41;;;;;;;12.70;4.23;;;;;;;-4.30;54.14;99888.09;5043784;28;20524;-76
2022/01/11 05:50:10;;;;;;;13.23;4.50;;;;;;;-4.30;54.52;99913.97;5033906;28;20106;-76
2022/01/11 05:52:39;;;;;;;13.80;4.20;;;;;;;-4.31;54.25;99931.00;5038050;28;20075;-76
2022/01/11 05:55:08;;;;;;;13.00;4.17;;;;;;;-4.32;54.29;99924.00;5028922;28;20592;-75
2022/01/11 05:57:35;;;;;;;12.23;4.63;;;;;;;-4.30;54.12;99946.84;5042521;28;20151;-75
2022/01/11 06:00:04;;;;;;;16.23;5.05;;;;;;;-4.29;53.90;99939.69;5046865;28;20053;-75
2022/01/11 06:02:41;;;;;;;;;;;;;;;-4.18;53.80;99939.28;5044157;28;20091;-76
2022/01/11 06:05:12;;;;;;;12.47;4.50;;;;;;;-4.23;53.73;99940.81;5061912;28;19928;-75
2022/01/11 06:07:39;;;;;;;12.30;4.60;;;;;;;-4.22;53.75;99951.31;5043182;28;20048;-76
2022/01/11 06:10:10;;;;;;;14.17;4.63;;;;;;;-4.39;53.97;99947.91;5042596;28;20056;-76
2022/01/11 06:12:36;;;;;;;14.27;5.15;;;;;;;-4.31;54.15;99952.38;5028956;28;20458;-76
2022/01/11 06:15:04;;;;;;;13.30;4.47;;;;;;;-4.29;53.90;99955.69;5050697;28;20068;-75
2022/01/11 06:17:31;;;;;;;14.23;4.67;;;;;;;-4.28;53.57;99966.22;5042332;28;20046;-76
2022/01/11 06:19:57;;;;;;;13.40;4.60;;;;;;;-4.35;53.56;99962.56;5022625;28;20441;-77
2022/01/11 06:22:30;;;;;;;13.67;4.33;;;;;;;-4.35;53.81;99970.56;5034833;28;20527;-76
2022/01/11 06:24:56;;;;;;;12.97;4.20;;;;;;;-4.35;53.43;99972.41;5047177;28;20045;-76
2022/01/11 06:27:23;;;;;;;13.23;4.43;;;;;;;-4.51;53.42;99971.47;5035695;28;20076;-76
2022/01/11 06:29:49;;;;;;;15.27;4.10;;;;;;;-4.51;53.22;99966.13;5035268;28;20080;-76
2022/01/11 06:32:17;;;;;;;13.33;4.73;;;;;;;-4.63;53.31;99957.63;5029546;28;20064;-76
2022/01/11 06:34:46;;;;;;;13.37;3.93;;;;;;;-4.51;52.93;99967.97;5040987;28;20269;-75
2022/01/11 06:37:13;;;;;;;18.17;4.17;;;;;;;-4.54;53.04;99977.13;5047723;28;20052;-76
2022/01/11 06:39:39;;;;;;;12.57;3.77;;;;;;;-4.60;52.86;99983.16;5028081;28;20053;-76
2022/01/11 06:42:07;;;;;;;13.00;4.03;;;;;;;-4.56;52.90;99976.47;5035759;28;20064;-75
2022/01/11 06:44:33;;;;;;;11.50;4.20;;;;;;;-4.63;52.69;99984.31;5045154;28;20049;-74
2022/01/11 06:47:00;;;;;;;15.53;4.73;;;;;;;-4.70;52.87;99994.84;5041601;28;20510;-76
2022/01/11 06:49:27;;;;;;;12.03;4.60;;;;;;;-4.66;52.89;99992.69;5044208;28;20413;-75
2022/01/11 06:51:55;;;;;;;12.07;4.40;;;;;;;-4.56;52.70;99988.00;5019564;28;20056;-74
2022/01/11 06:54:21;;;;;;;12.13;4.80;;;;;;;-4.66;52.46;99999.88;5033770;28;20046;-74
2022/01/11 06:56:48;;;;;;;15.55;5.78;;;;;;;-4.63;52.49;100012.88;5041583;28;20056;-76
2022/01/11 06:59:15;;;;;;;;;;;;;;;-4.63;52.24;100020.88;5040993;28;20087;-76
2022/01/11 07:01:42;;;;;;;12.00;4.77;;;;;;;-4.72;52.39;100015.53;5045663;28;19975;-77
2022/01/11 07:04:22;;;;;;;15.90;5.87;;;;;;;-4.68;52.21;100013.38;5031354;28;20140;-76
2022/01/11 07:06:55;;;;;;;13.30;4.83;;;;;;;-4.65;51.95;100022.88;5030555;28;20041;-76
2022/01/11 07:09:21;;;;;;;;;;;;;;;-4.62;52.10;100009.19;5050239;28;20139;-73
2022/01/11 07:11:47;;;;;;;14.97;4.83;;;;;;;-4.81;52.07;100019.25;5052567;28;20015;-73
2022/01/11 07:14:13;;;;;;;18.53;5.20;;;;;;;-4.73;51.92;100021.06;5040308;28;20134;-72
2022/01/11 07:16:48;;;;;;;14.43;5.37;;;;;;;-4.75;52.11;100031.06;5041182;28;20038;-73
2022/01/11 07:19:15;;;;;;;12.10;4.83;;;;;;;-4.80;52.00;100034.25;5030148;28;20127;-73
2022/01/11 07:21:44;;;;;;;10.93;4.13;;;;;;;-4.90;52.00;100033.56;5029368;28;20053;-73
2022/01/11 07:24:12;;;;;;;11.00;4.30;;;;;;;-5.05;51.98;100042.25;5004988;28;20485;-72
2022/01/11 07:26:41;;;;;;;11.20;4.37;;;;;;;-5.04;52.26;100033.25;5029710;28;20345;-73
2022/01/11 07:29:09;;;;;;;14.67;4.47;;;;;;;-5.03;51.94;100048.25;5043418;28;20056;-73
2022/01/11 07:31:38;;;;;;;12.45;3.83;;;;;;;-4.99;51.58;100051.41;5041382;28;20143;-72
2022/01/11 07:34:07;;;;;;;12.67;4.60;;;;;;;-4.97;51.88;100045.94;5031598;28;20114;-72
2022/01/11 07:36:34;;;;;;;14.03;4.50;;;;;;;-4.97;51.54;100046.75;5047764;28;20537;-73
2022/01/11 07:39:05;;;;;;;11.37;4.50;;;;;;;-5.11;51.29;100042.94;5036735;28;20049;-73
2022/01/11 07:41:34;;;;;;;10.03;4.53;;;;;;;-4.94;51.57;100057.06;5032797;28;20052;-73
2022/01/11 07:44:20;;;;;;;12.63;4.30;;;;;;;-4.86;51.06;100053.56;5022672;28;20107;-73
2022/01/11 07:46:48;;;;;;;14.40;5.25;;;;;;;-5.00;51.05;100058.56;5035786;28;20136;-72
2022/01/11 07:49:24;;;;;;;11.87;4.30;;;;;;;-5.00;51.15;100060.44;5048847;28;20053;-74
2022/01/11 07:51:51;;;;;;;12.88;4.72;;;;;;;-4.91;50.90;100067.44;5013060;28;20051;-74
2022/01/11 07:54:18;;;;;;;10.00;3.70;;;;;;;-4.93;50.80;100061.41;5043149;28;20041;-72
2022/01/11 07:56:47;;;;;;;12.97;4.80;;;;;;;-5.16;50.59;100053.22;5043820;28;20045;-72
2022/01/11 07:59:15;;;;;;;11.17;3.27;;;;;;;-5.10;49.76;100070.41;5035678;28;20060;-71
2022/01/11 08:01:44;;;;;;;12.90;3.47;;;;;;;-5.24;50.02;100059.41;5043548;28;20164;-70
2022/01/11 08:04:13;;;;;;;10.93;3.77;;;;;;;-5.32;49.66;100062.06;5044230;28;20052;-70
2022/01/11 08:06:58;;;;;;;12.23;4.03;;;;;;;-5.26;49.63;100072.06;5052706;28;20059;-70
2022/01/11 08:09:43;;;;;;;10.37;3.83;;;;;;;-5.28;49.37;100079.41;5029204;28;20053;-71
2022/01/11 08:12:12;;;;;;;9.40;3.50;;;;;;;-5.34;49.50;100069.41;5054401;28;20056;-71
2022/01/11 08:14:38;;;;;;;13.03;3.77;;;;;;;-5.31;49.19;100074.41;5043104;28;20128;-71
2022/01/11 08:17:04;;;;;;;9.33;3.63;;;;;;;-5.29;49.28;100080.41;5044357;28;20057;-70
2022/01/11 08:19:30;;;;;;;16.43;4.27;;;;;;;-5.33;49.42;100071.06;5049689;28;20048;-70
2022/01/11 08:21:59;;;;;;;10.73;4.13;;;;;;;-5.32;49.53;100073.53;5050220;28;20060;-70
2022/01/11 08:24:34;;;;;;;12.80;3.67;;;;;;;-5.28;49.37;100077.56;5031695;28;20041;-69
2022/01/11 08:27:00;;;;;;;13.30;3.73;;;;;;;-5.33;49.23;100079.06;5051045;28;20152;-72
2022/01/11 08:29:27;;;;;;;10.90;3.83;;;;;;;-5.29;49.29;100085.72;5042836;28;20049;-70
2022/01/11 08:31:59;;;;;;;11.00;3.73;;;;;;;-5.27;48.93;100076.56;5030087;28;20064;-71
2022/01/11 08:34:25;;;;;;;11.30;3.60;;;;;;;-5.22;48.94;100078.75;5046184;28;20533;-71
2022/01/11 08:36:54;;;;;;;12.43;3.93;;;;;;;-5.28;48.93;100077.56;5026018;28;20040;-69
2022/01/11 08:39:21;;;;;;;12.00;4.17;;;;;;;-5.24;48.75;100075.41;5032561;28;20053;-72
2022/01/11 08:41:48;;;;;;;13.37;4.23;;;;;;;-5.23;48.67;100084.25;5044788;28;20073;-71
2022/01/11 08:44:14;;;;;;;13.30;4.07;;;;;;;-5.20;48.92;100089.25;5047924;28;20597;-71
2022/01/11 08:46:43;;;;;;;11.50;3.72;;;;;;;-5.24;48.71;100086.06;5048404;28;20050;-71
2022/01/11 08:49:16;;;;;;;9.50;3.23;;;;;;;-5.18;48.98;100081.91;5033956;28;20041;-71
2022/01/11 08:51:43;;;;;;;15.20;4.20;;;;;;;-5.26;48.58;100072.06;5039763;28;20137;-71
2022/01/11 08:54:11;;;;;;;10.23;3.87;;;;;;;-5.06;48.60;100088.59;5047950;28;20045;-71
2022/01/11 08:56:41;;;;;;;9.60;3.40;;;;;;;-5.14;48.28;100081.41;5049566;28;20048;-71
2022/01/11 08:59:08;;;;;;;14.57;4.07;;;;;;;-5.14;48.44;100076.09;5045418;28;20501;-70
2022/01/11 09:01:37;;;;;;;9.90;3.80;;;;;;;-5.01;48.59;100082.75;5046431;28;20095;-71
2022/01/11 09:04:08;;;;;;;11.67;3.90;;;;;;;-5.01;48.43;100085.44;5038638;28;20087;-71
2022/01/11 09:06:46;;;;;;;9.90;3.53;;;;;;;-4.97;48.07;100075.28;5046039;28;20037;-71
2022/01/11 09:09:14;;;;;;;12.68;4.13;;;;;;;-4.95;48.37;100083.94;5027805;28;20061;-72
2022/01/11 09:11:42;;;;;;;10.27;3.92;;;;;;;-4.94;48.07;100078.41;5028288;28;20045;-71
2022/01/11 09:14:10;;;;;;;12.33;3.50;;;;;;;-4.92;48.15;100086.28;5049941;28;20041;-70
2022/01/11 09:16:37;;;;;;;11.47;3.57;;;;;;;-4.90;48.21;100082.44;5050294;28;20076;-69
2022/01/11 09:19:03;;;;;;;13.43;4.27;;;;;;;-4.88;47.99;100087.59;5012389;28;20518;-70
2022/01/11 09:21:32;;;;;;;15.23;3.73;;;;;;;-4.86;47.70;100080.25;5032795;28;20041;-71
2022/01/11 09:23:58;;;;;;;10.70;3.87;;;;;;;-4.96;47.97;100088.44;5021373;28;20494;-70
2022/01/11 09:26:32;;;;;;;11.10;4.33;;;;;;;-4.98;48.03;100090.44;5031178;28;20510;-71
2022/01/11 09:28:58;;;;;;;12.87;4.00;;;;;;;-4.92;48.09;100087.09;5032238;28;20057;-71
2022/01/11 09:31:25;;;;;;;10.73;3.90;;;;;;;-4.90;48.24;100086.94;5049295;28;20049;-70
2022/01/11 09:33:54;;;;;;;11.97;3.90;;;;;;;-4.92;47.95;100089.75;5031335;28;20102;-71
2022/01/11 09:36:20;;;;;;;18.10;3.87;;;;;;;-4.89;48.02;100094.78;5050053;28;20044;-70
2022/01/11 09:38:49;;;;;;;11.17;3.73;;;;;;;-5.05;47.99;100089.44;5040375;28;20053;-71
2022/01/11 09:41:15;;;;;;;;;;;;;;;-5.03;48.39;100092.78;5051977;28;20045;-71
2022/01/11 09:43:42;;;;;;;15.03;4.17;;;;;;;-5.06;48.19;100085.94;5029246;28;19925;-71
2022/01/11 09:46:10;;;;;;;11.57;3.97;;;;;;;-4.99;47.81;100094.09;5042409;28;20045;-71
2022/01/11 09:48:41;;;;;;;10.40;3.93;;;;;;;-5.01;47.65;100094.25;5044731;28;20414;-72
2022/01/11 09:51:07;;;;;;;12.00;3.80;;;;;;;-5.03;47.58;100095.44;5023576;28;20111;-71
2022/01/11 09:53:35;;;;;;;18.13;4.33;;;;;;;-4.99;47.54;100097.63;5048815;28;20059;-71
2022/01/11 09:56:08;;;;;;;13.37;4.20;;;;;;;-4.93;47.85;100103.28;5046100;28;20056;-72
2022/01/11 09:58:38;;;;;;;13.57;4.17;;;;;;;-4.93;47.71;100105.94;5030069;28;20045;-73
2022/01/11 10:01:23;;;;;;;12.93;4.47;;;;;;;-4.92;47.57;100104.94;5039971;28;20052;-71
2022/01/11 10:04:13;;;;;;;10.50;3.97;;;;;;;-4.93;47.54;100113.94;5037332;28;20037;-71
2022/01/11 10:07:04;;;;;;;13.80;5.03;;;;;;;-4.89;47.87;100113.47;5043516;28;20056;-72
2022/01/11 10:09:32;;;;;;;14.20;5.37;;;;;;;-4.91;47.52;100109.28;5043345;28;20421;-71
2022/01/11 10:12:02;;;;;;;13.17;4.13;;;;;;;-4.97;47.81;100108.09;5033064;28;20406;-72
2022/01/11 10:14:32;;;;;;;11.83;3.93;;;;;;;-4.98;47.79;100119.78;5021065;28;20048;-72
2022/01/11 10:17:11;;;;;;;15.20;4.40;;;;;;;-5.07;47.61;100102.94;5048132;28;20056;-72
2022/01/11 10:19:44;;;;;;;12.30;4.30;;;;;;;-5.02;47.48;100116.59;5024019;28;20498;-71
2022/01/11 10:22:12;;;;;;;12.73;4.80;;;;;;;-5.01;47.37;100109.44;5043632;28;20037;-71
2022/01/11 10:24:42;;;;;;;10.30;4.07;;;;;;;-5.07;47.78;100123.41;5028833;28;20148;-71
2022/01/11 10:27:34;;;;;;;12.53;3.80;;;;;;;-5.03;47.73;100122.94;5035821;28;20548;-69
2022/01/11 10:30:06;;;;;;;12.17;3.83;;;;;;;-5.06;47.60;100111.78;5029668;28;20053;-73
2022/01/11 10:32:35;;;;;;;12.40;4.33;;;;;;;-5.03;47.41;100117.59;5033249;28;20072;-70
2022/01/11 10:35:12;;;;;;;12.43;4.10;;;;;;;-4.99;47.28;100115.44;5041159;28;20064;-70
2022/01/11 10:37:42;;;;;;;12.37;4.03;;;;;;;-5.04;47.26;100120.44;5039434;28;20139;-69
2022/01/11 10:40:15;;;;;;;10.10;3.87;;;;;;;-5.15;47.57;100118.91;5059783;28;20563;-71
2022/01/11 10:42:47;;;;;;;11.93;3.70;;;;;;;-5.25;47.18;100127.06;5050114;28;20516;-71
2022/01/11 10:45:16;;;;;;;10.90;3.87;;;;;;;-5.23;47.46;100122.38;5047755;28;20052;-70
2022/01/11 10:47:47;;;;;;;11.60;3.87;;;;;;;-5.30;47.18;100114.25;5052465;28;20052;-71
2022/01/11 10:50:17;;;;;;;13.33;3.93;;;;;;;-5.33;47.53;100125.19;5066584;28;20162;-70
2022/01/11 10:52:47;;;;;;;12.37;3.53;;;;;;;-5.36;47.13;100127.38;5055581;28;20135;-69
2022/01/11 10:55:24;;;;;;;10.02;4.07;;;;;;;-5.45;47.10;100123.84;5050338;28;20068;-70
2022/01/11 10:57:54;;;;;;;13.53;3.97;;;;;;;-5.46;46.89;100115.00;5018182;28;20049;-70
2022/01/11 11:00:29;;;;;;;12.70;3.90;;;;;;;-5.32;46.82;100132.19;5027820;28;20056;-72
2022/01/11 11:03:00;;;;;;;10.50;3.73;;;;;;;-5.37;46.67;100139.03;5031500;28;20046;-68
2022/01/11 11:05:31;;;;;;;10.10;4.07;;;;;;;-5.35;46.35;100132.53;5041555;28;20052;-70
2022/01/11 11:08:11;;;;;;;12.17;3.80;;;;;;;-5.35;46.33;100137.88;5044361;28;20057;-70
2022/01/11 11:10:41;;;;;;;12.47;4.20;;;;;;;-5.32;46.60;100136.72;5044922;28;20555;-70
2022/01/11 11:13:17;;;;;;;10.83;3.70;;;;;;;-5.44;46.54;100118.34;5051588;28;20069;-70
2022/01/11 11:15:44;;;;;;;9.23;3.25;;;;;;;-5.41;46.28;100134.00;5034463;28;20081;-70
2022/01/11 11:18:37;;;;;;;10.33;3.50;;;;;;;-5.45;46.18;100121.19;5030481;28;20470;-70
2022/01/11 11:21:17;;;;;;;12.10;3.80;;;;;;;-5.62;46.46;100138.94;5043165;28;20525;-71
2022/01/11 11:23:44;;;;;;;12.27;3.77;;;;;;;-5.67;46.65;100142.09;5037624;28;20052;-70
2022/01/11 11:26:12;;;;;;;12.45;3.38;;;;;;;-5.60;46.64;100145.78;5026169;28;20045;-70
2022/01/11 11:28:39;;;;;;;;;;;;;;;-5.53;46.46;100155.78;5046448;28;20085;-71
2022/01/11 11:31:05;;;;;;;;;;;;;;;-5.57;46.46;100140.13;5042027;28;19929;-71
2022/01/11 11:33:34;;;;;;;14.20;3.57;;;;;;;-5.55;46.32;100156.78;5052355;28;19924;-70
2022/01/11 11:36:00;;;;;;;10.20;3.47;;;;;;;-5.63;46.12;100146.09;5051365;28;20506;-70
2022/01/11 11:38:29;;;;;;;9.50;3.80;;;;;;;-5.66;46.18;100149.09;5052859;28;20152;-70